Time,TemperatureF,DewpointF,PressureIn,WindDirection,WindDirectionDegrees,WindSpeedMPH,WindSpeedGustMPH,Humidity,HourlyPrecipIn,Conditions,Clouds,dailyrainin,SoftwareType,DateUTC
2013-10-16 00:02:00,36.9,31.0,30.03,NW,308,0.0,0.0,79,0.00,,CLR,0.00,VWS V14.00,2013-10-16 05:02:00,
2013-10-16 00:07:00,36.7,30.8,30.03,NW,308,0.0,0.0,79,0.00,,CLR,0.00,VWS V14.00,2013-10-16 05:07:00,
2013-10-16 00:12:00,36.5,30.6,30.03,NW,308,0.0,0.0,79,0.00,,CLR,0.00,VWS V14.00,2013-10-16 05:12:00,
2013-10-16 00:17:00,36.4,30.5,30.03,NW,308,0.0,0.0,79,0.00,,CLR,0.00,VWS V14.00,2013-10-16 05:17:00,
2013-10-16 00:22:00,36.2,30.3,30.03,NW,308,0.0,0.0,79,0.00,,CLR,0.00,VWS V14.00,2013-10-16 05:22:00,
2013-10-16 00:27:00,36.0,30.1,30.03,NW,308,0.0,0.0,79,0.00,,CLR,0.00,VWS V14.00,2013-10-16 05:27:00,
2013-10-16 00:32:00,35.8,30.2,30.02,NW,307,0.0,0.0,80,0.00,,CLR,0.00,VWS V14.00,2013-10-16 05:32:00,
2013-10-16 00:37:00,35.7,30.1,30.02,NW,307,0.0,0.0,80,0.00,,CLR,0.00,VWS V14.00,2013-10-16 05:37:00,
2013-10-16 00:42:00,35.6,30.0,30.02,NW,307,0.0,0.0,80,0.00,,CLR,0.00,VWS V14.00,2013-10-16 05:42:00,
2013-10-16 00:47:00,35.5,30.0,30.03,NW,307,0.0,0.0,80,0.00,,CLR,0.00,VWS V14.00,2013-10-16 05:47:00,
2013-10-16 00:52:00,35.4,29.9,30.02,NW,307,0.0,0.0,80,0.00,,CLR,0.00,VWS V14.00,2013-10-16 05:52:00,
2013-10-16 00:57:00,35.3,29.8,30.02,NW,307,0.0,0.0,80,0.00,,CLR,0.00,VWS V14.00,2013-10-16 05:57:00,
2013-10-16 01:02:00,35.2,29.7,30.02,NW,307,0.0,0.0,80,0.00,,CLR,0.00,VWS V14.00,2013-10-16 06:02:00,
2013-10-16 01:07:00,35.1,29.9,30.02,NW,307,0.0,0.0,81,0.00,,CLR,0.00,VWS V14.00,2013-10-16 06:07:00,
2013-10-16 01:12:00,35.0,29.8,30.02,NW,307,0.0,0.0,81,0.00,,CLR,0.00,VWS V14.00,2013-10-16 06:12:00,
2013-10-16 01:17:00,34.9,29.7,30.02,NW,307,0.0,0.0,81,0.00,,CLR,0.00,VWS V14.00,2013-10-16 06:17:00,
2013-10-16 01:22:00,34.8,29.6,30.02,NW,307,0.0,0.0,81,0.00,,CLR,0.00,VWS V14.00,2013-10-16 06:22:00,
2013-10-16 01:27:00,34.7,29.5,30.02,NW,307,0.0,0.0,81,0.00,,CLR,0.00,VWS V14.00,2013-10-16 06:27:00,
2013-10-16 01:32:00,34.6,29.4,30.02,NW,307,0.0,0.0,81,0.00,,CLR,0.00,VWS V14.00,2013-10-16 06:32:00,
2013-10-16 01:37:00,34.5,29.6,30.02,NW,307,0.0,0.0,82,0.00,,CLR,0.00,VWS V14.00,2013-10-16 06:37:00,
2013-10-16 01:42:00,34.4,29.5,30.02,NW,307,0.0,0.0,82,0.00,,CLR,0.00,VWS V14.00,2013-10-16 06:42:00,
2013-10-16 01:47:00,34.3,29.4,30.02,NW,307,0.0,0.0,82,0.00,,CLR,0.00,VWS V14.00,2013-10-16 06:47:00,
2013-10-16 01:52:00,34.0,29.1,30.02,NW,307,0.0,0.0,82,0.00,,CLR,0.00,VWS V14.00,2013-10-16 06:52:00,
2013-10-16 01:57:00,33.8,28.9,30.02,NW,307,0.0,0.0,82,0.00,,CLR,0.00,VWS V14.00,2013-10-16 06:57:00,
2013-10-16 02:02:00,33.6,28.7,30.02,NW,307,0.0,0.0,82,0.00,,CLR,0.00,VWS V14.00,2013-10-16 07:02:00,
2013-10-16 02:07:00,33.4,28.5,30.02,NW,307,0.0,0.0,82,0.00,,CLR,0.00,VWS V14.00,2013-10-16 07:07:00,
2013-10-16 02:12:00,33.3,28.7,30.01,NW,307,0.0,0.0,83,0.00,,CLR,0.00,VWS V14.00,2013-10-16 07:12:00,
2013-10-16 02:17:00,33.1,28.5,30.01,NW,307,0.0,0.0,83,0.00,,CLR,0.00,VWS V14.00,2013-10-16 07:17:00,
2013-10-16 02:22:00,32.9,28.3,30.01,NW,307,0.0,0.0,83,0.00,,CLR,0.00,VWS V14.00,2013-10-16 07:22:00,
2013-10-16 02:27:00,32.8,28.2,30.01,NW,307,0.0,0.0,83,0.00,,CLR,0.00,VWS V14.00,2013-10-16 07:27:00,
2013-10-16 02:32:00,32.7,28.1,30.01,NW,307,0.0,0.0,83,0.00,,CLR,0.00,VWS V14.00,2013-10-16 07:32:00,
2013-10-16 02:37:00,32.6,28.0,30.01,NW,307,0.0,0.0,83,0.00,,CLR,0.00,VWS V14.00,2013-10-16 07:37:00,
2013-10-16 02:42:00,32.4,27.8,30.01,NW,307,0.0,0.0,83,0.00,,CLR,0.00,VWS V14.00,2013-10-16 07:42:00,
2013-10-16 02:47:00,32.3,28.0,30.01,NW,307,0.0,0.0,84,0.00,,CLR,0.00,VWS V14.00,2013-10-16 07:47:00,
2013-10-16 02:52:00,32.2,27.6,30.01,NW,307,0.0,0.0,83,0.00,,CLR,0.00,VWS V14.00,2013-10-16 07:52:00,
2013-10-16 02:58:00,32.1,27.8,30.01,NW,307,0.0,0.0,84,0.00,,CLR,0.00,VWS V14.00,2013-10-16 07:58:00,
2013-10-16 03:03:00,32.0,27.4,30.01,NW,307,0.0,0.0,83,0.00,,CLR,0.00,VWS V14.00,2013-10-16 08:03:00,
2013-10-16 03:08:00,32.0,27.7,30.01,NW,307,0.0,0.0,84,0.00,,CLR,0.00,VWS V14.00,2013-10-16 08:08:00,
2013-10-16 03:13:00,32.1,27.8,30.01,NW,307,0.0,0.0,84,0.00,,CLR,0.00,VWS V14.00,2013-10-16 08:13:00,
2013-10-16 03:18:00,32.1,28.1,30.01,NW,307,0.0,0.0,85,0.00,,CLR,0.00,VWS V14.00,2013-10-16 08:18:00,
2013-10-16 03:23:00,32.2,28.2,30.01,NW,307,0.0,0.0,85,0.00,,CLR,0.00,VWS V14.00,2013-10-16 08:23:00,
2013-10-16 03:28:00,32.3,28.3,30.00,NW,307,0.0,0.0,85,0.00,,CLR,0.00,VWS V14.00,2013-10-16 08:28:00,
2013-10-16 03:33:00,32.2,28.2,30.00,NW,307,0.0,0.0,85,0.00,,CLR,0.00,VWS V14.00,2013-10-16 08:33:00,
2013-10-16 03:38:00,32.2,28.2,30.00,NW,307,0.0,0.0,85,0.00,,CLR,0.00,VWS V14.00,2013-10-16 08:38:00,
2013-10-16 03:43:00,32.1,28.1,30.00,NW,307,0.0,0.0,85,0.00,,CLR,0.00,VWS V14.00,2013-10-16 08:43:00,
2013-10-16 03:48:00,32.1,28.1,30.00,NW,307,0.0,0.0,85,0.00,,CLR,0.00,VWS V14.00,2013-10-16 08:48:00,
2013-10-16 03:53:00,32.0,28.0,29.99,NW,307,0.0,0.0,85,0.00,,CLR,0.00,VWS V14.00,2013-10-16 08:53:00,
2013-10-16 03:58:00,31.9,27.9,29.99,NW,307,0.0,0.0,85,0.00,,CLR,0.00,VWS V14.00,2013-10-16 08:58:00,
2013-10-16 04:03:00,31.7,27.7,29.99,NW,307,0.0,0.0,85,0.00,,CLR,0.00,VWS V14.00,2013-10-16 09:03:00,
2013-10-16 04:08:00,31.5,27.5,29.99,NW,307,0.0,0.0,85,0.00,,CLR,0.00,VWS V14.00,2013-10-16 09:08:00,
2013-10-16 04:13:00,31.2,27.2,29.99,NW,307,0.0,0.0,85,0.00,,CLR,0.00,VWS V14.00,2013-10-16 09:13:00,
2013-10-16 04:18:00,31.0,27.0,29.99,NW,307,0.0,0.0,85,0.00,,CLR,0.00,VWS V14.00,2013-10-16 09:18:00,
2013-10-16 04:23:00,30.8,26.8,29.98,NW,307,0.0,0.0,85,0.00,,CLR,0.00,VWS V14.00,2013-10-16 09:23:00,
2013-10-16 04:28:00,30.6,26.6,29.98,NW,307,0.0,0.0,85,0.00,,CLR,0.00,VWS V14.00,2013-10-16 09:28:00,
2013-10-16 04:33:00,30.4,26.4,29.98,NW,307,0.0,0.0,85,0.00,,CLR,0.00,VWS V14.00,2013-10-16 09:33:00,
2013-10-16 04:38:00,30.2,26.2,29.98,NW,307,0.0,0.0,85,0.00,,CLR,0.00,VWS V14.00,2013-10-16 09:38:00,
2013-10-16 04:43:00,30.0,26.0,29.97,NW,307,0.0,0.0,85,0.00,,CLR,0.00,VWS V14.00,2013-10-16 09:43:00,
2013-10-16 04:48:00,30.0,26.0,29.97,NW,307,0.0,0.0,85,0.00,,CLR,0.00,VWS V14.00,2013-10-16 09:48:00,
2013-10-16 04:53:00,30.1,26.4,29.98,NW,307,0.0,0.0,86,0.00,,CLR,0.00,VWS V14.00,2013-10-16 09:53:00,
2013-10-16 04:58:00,30.2,26.5,29.98,NW,307,0.0,0.0,86,0.00,,CLR,0.00,VWS V14.00,2013-10-16 09:58:00,
2013-10-16 05:03:00,30.2,26.5,29.98,NW,307,0.0,0.0,86,0.00,,CLR,0.00,VWS V14.00,2013-10-16 10:03:00,
2013-10-16 05:08:00,30.2,26.5,29.97,NW,307,0.0,0.0,86,0.00,,CLR,0.00,VWS V14.00,2013-10-16 10:08:00,
2013-10-16 05:13:00,30.0,26.3,29.97,NW,307,0.0,0.0,86,0.00,,CLR,0.00,VWS V14.00,2013-10-16 10:13:00,
2013-10-16 05:18:00,29.9,26.2,29.97,NW,307,0.0,0.0,86,0.00,,CLR,0.00,VWS V14.00,2013-10-16 10:18:00,
2013-10-16 05:23:00,29.8,26.1,29.97,NW,307,0.0,0.0,86,0.00,,CLR,0.00,VWS V14.00,2013-10-16 10:23:00,
2013-10-16 05:28:00,29.6,25.9,29.97,NW,307,0.0,0.0,86,0.00,,CLR,0.00,VWS V14.00,2013-10-16 10:28:00,
2013-10-16 05:33:00,29.4,25.5,29.97,NW,307,0.0,0.0,85,0.00,,CLR,0.00,VWS V14.00,2013-10-16 10:33:00,
2013-10-16 05:38:00,29.3,25.6,29.97,NW,307,0.0,0.0,86,0.00,,CLR,0.00,VWS V14.00,2013-10-16 10:38:00,
2013-10-16 05:43:00,29.2,25.5,29.97,NW,307,0.0,0.0,86,0.00,,CLR,0.00,VWS V14.00,2013-10-16 10:43:00,
2013-10-16 05:48:00,29.2,25.5,29.96,NW,307,0.0,0.0,86,0.00,,CLR,0.00,VWS V14.00,2013-10-16 10:48:00,
2013-10-16 05:53:00,29.0,25.4,29.96,NW,307,0.0,0.0,86,0.00,,CLR,0.00,VWS V14.00,2013-10-16 10:53:00,
2013-10-16 05:58:00,28.9,25.2,29.96,NW,307,0.0,0.0,86,0.00,,CLR,0.00,VWS V14.00,2013-10-16 10:58:00,
2013-10-16 06:03:00,28.9,25.2,29.97,NW,307,0.0,0.0,86,0.00,,CLR,0.00,VWS V14.00,2013-10-16 11:03:00,
2013-10-16 06:08:00,29.0,25.4,29.96,NW,307,0.0,0.0,86,0.00,,CLR,0.00,VWS V14.00,2013-10-16 11:08:00,
2013-10-16 06:13:00,29.4,25.7,29.96,NW,307,0.0,0.0,86,0.00,,CLR,0.00,VWS V14.00,2013-10-16 11:13:00,
2013-10-16 06:18:00,29.6,25.9,29.96,NW,307,0.0,0.0,86,0.00,,CLR,0.00,VWS V14.00,2013-10-16 11:18:00,
2013-10-16 06:23:00,29.8,26.4,29.96,NW,307,0.0,0.0,87,0.00,,CLR,0.00,VWS V14.00,2013-10-16 11:23:00,
2013-10-16 06:28:00,29.8,26.1,29.96,NW,307,0.0,0.0,86,0.00,,CLR,0.00,VWS V14.00,2013-10-16 11:28:00,
2013-10-16 06:33:00,29.7,26.0,29.96,NW,307,0.0,0.0,86,0.00,,CLR,0.00,VWS V14.00,2013-10-16 11:33:00,
2013-10-16 06:38:00,29.6,25.9,29.96,NW,307,0.0,0.0,86,0.00,,CLR,0.00,VWS V14.00,2013-10-16 11:38:00,
2013-10-16 06:44:00,29.4,25.7,29.96,NW,307,0.0,0.0,86,0.00,,CLR,0.00,VWS V14.00,2013-10-16 11:44:00,
2013-10-16 06:49:00,29.4,25.7,29.96,NW,307,0.0,0.0,86,0.00,,CLR,0.00,VWS V14.00,2013-10-16 11:49:00,
2013-10-16 06:54:00,29.5,25.8,29.96,NW,307,0.0,0.0,86,0.00,,CLR,0.00,VWS V14.00,2013-10-16 11:54:00,
2013-10-16 06:59:00,29.5,26.1,29.96,NW,307,0.0,0.0,87,0.00,,CLR,0.00,VWS V14.00,2013-10-16 11:59:00,
2013-10-16 07:04:00,29.5,25.8,29.96,NW,307,0.0,0.0,86,0.00,,CLR,0.00,VWS V14.00,2013-10-16 12:04:00,
2013-10-16 07:09:00,29.5,26.1,29.96,NW,307,0.0,0.0,87,0.00,,CLR,0.00,VWS V14.00,2013-10-16 12:09:00,
2013-10-16 07:14:00,29.5,25.8,29.96,NW,307,0.0,0.0,86,0.00,,CLR,0.00,VWS V14.00,2013-10-16 12:14:00,
2013-10-16 07:19:00,29.6,25.9,29.96,NW,307,0.0,0.0,86,0.00,,CLR,0.00,VWS V14.00,2013-10-16 12:19:00,
2013-10-16 07:24:00,29.8,26.4,29.95,NW,307,0.0,0.0,87,0.00,,CLR,0.00,VWS V14.00,2013-10-16 12:24:00,
2013-10-16 07:29:00,30.0,26.6,29.95,NW,307,0.0,0.0,87,0.00,,CLR,0.00,VWS V14.00,2013-10-16 12:29:00,
2013-10-16 07:34:00,30.0,26.6,29.96,NW,307,0.0,0.0,87,0.00,,CLR,0.00,VWS V14.00,2013-10-16 12:34:00,
2013-10-16 07:39:00,30.1,26.7,29.95,NW,307,0.0,0.0,87,0.00,,CLR,0.00,VWS V14.00,2013-10-16 12:39:00,
2013-10-16 07:44:00,30.1,26.7,29.95,NW,307,0.0,0.0,87,0.00,,CLR,0.00,VWS V14.00,2013-10-16 12:44:00,
2013-10-16 07:49:00,30.1,26.7,29.95,NW,307,0.0,0.0,87,0.00,,CLR,0.00,VWS V14.00,2013-10-16 12:49:00,
2013-10-16 07:54:00,30.3,26.9,29.95,NW,307,0.0,0.0,87,0.00,,CLR,0.00,VWS V14.00,2013-10-16 12:54:00,
2013-10-16 07:59:00,30.4,27.0,29.95,NW,307,0.0,0.0,87,0.00,,CLR,0.00,VWS V14.00,2013-10-16 12:59:00,
2013-10-16 08:04:00,30.5,27.1,29.95,NW,307,0.0,0.0,87,0.00,,CLR,0.00,VWS V14.00,2013-10-16 13:04:00,
2013-10-16 08:09:00,30.6,27.5,29.95,NW,307,0.0,0.0,88,0.00,,CLR,0.00,VWS V14.00,2013-10-16 13:09:00,
2013-10-16 08:14:00,30.8,27.7,29.95,NW,305,0.0,0.0,88,0.00,,CLR,0.00,VWS V14.00,2013-10-16 13:14:00,
2013-10-16 08:19:00,30.9,27.8,29.95,NW,304,0.0,0.0,88,0.00,,CLR,0.00,VWS V14.00,2013-10-16 13:19:00,
2013-10-16 08:24:00,31.0,27.9,29.95,NW,304,0.0,0.0,88,0.00,,CLR,0.00,VWS V14.00,2013-10-16 13:24:00,
2013-10-16 08:29:00,31.0,27.6,29.95,WNW,290,0.0,0.0,87,0.00,,CLR,0.00,VWS V14.00,2013-10-16 13:29:00,
2013-10-16 08:34:00,31.0,27.6,29.95,WNW,290,0.0,0.0,87,0.00,,CLR,0.00,VWS V14.00,2013-10-16 13:34:00,
2013-10-16 08:39:00,31.1,28.0,29.95,WNW,287,0.0,0.0,88,0.00,,CLR,0.00,VWS V14.00,2013-10-16 13:39:00,
2013-10-16 08:44:00,31.2,28.1,29.95,WNW,286,0.0,0.0,88,0.00,,CLR,0.00,VWS V14.00,2013-10-16 13:44:00,
2013-10-16 08:49:00,31.4,28.3,29.95,WNW,282,0.0,0.0,88,0.00,,CLR,0.00,VWS V14.00,2013-10-16 13:49:00,
2013-10-16 08:54:00,31.6,28.5,29.95,West,259,0.0,0.0,88,0.00,,CLR,0.00,VWS V14.00,2013-10-16 13:54:00,
2013-10-16 08:59:00,31.8,28.7,29.95,West,259,0.0,0.0,88,0.00,,CLR,0.00,VWS V14.00,2013-10-16 13:59:00,
2013-10-16 09:04:00,32.1,29.0,29.95,West,259,0.0,0.0,88,0.00,,CLR,0.00,VWS V14.00,2013-10-16 14:04:00,
2013-10-16 09:09:00,32.2,29.0,29.95,West,259,0.0,0.0,88,0.00,,CLR,0.00,VWS V14.00,2013-10-16 14:09:00,
2013-10-16 09:14:00,32.4,29.2,29.94,West,259,0.0,0.0,88,0.00,,CLR,0.00,VWS V14.00,2013-10-16 14:14:00,
2013-10-16 09:19:00,32.7,29.5,29.95,West,259,0.0,0.0,88,0.00,,CLR,0.00,VWS V14.00,2013-10-16 14:19:00,
2013-10-16 09:24:00,32.9,30.0,29.95,West,259,0.0,0.0,89,0.00,,CLR,0.00,VWS V14.00,2013-10-16 14:24:00,
2013-10-16 09:29:00,33.1,30.2,29.95,West,259,0.0,0.0,89,0.00,,CLR,0.00,VWS V14.00,2013-10-16 14:29:00,
2013-10-16 09:34:00,33.5,30.6,29.94,West,259,0.0,0.0,89,0.00,,CLR,0.00,VWS V14.00,2013-10-16 14:34:00,
2013-10-16 09:39:00,33.8,30.9,29.94,West,259,0.0,0.0,89,0.00,,CLR,0.00,VWS V14.00,2013-10-16 14:39:00,
2013-10-16 09:44:00,34.3,31.4,29.94,West,259,0.0,0.0,89,0.00,,CLR,0.00,VWS V14.00,2013-10-16 14:44:00,
2013-10-16 09:49:00,34.7,31.8,29.95,West,259,0.0,0.0,89,0.00,,CLR,0.00,VWS V14.00,2013-10-16 14:49:00,
2013-10-16 09:54:00,35.4,32.5,29.95,West,259,0.0,0.0,89,0.00,,CLR,0.00,VWS V14.00,2013-10-16 14:54:00,
2013-10-16 09:59:00,36.0,33.4,29.94,West,259,0.0,0.0,90,0.00,,CLR,0.00,VWS V14.00,2013-10-16 14:59:00,
2013-10-16 10:04:00,36.6,33.7,29.94,West,259,0.0,0.0,89,0.00,,CLR,0.00,VWS V14.00,2013-10-16 15:04:00,
2013-10-16 10:09:00,37.4,34.5,29.94,West,259,0.0,0.0,89,0.00,,CLR,0.00,VWS V14.00,2013-10-16 15:09:00,
2013-10-16 10:15:00,38.1,35.2,29.94,West,259,0.0,0.0,89,0.00,,CLR,0.00,VWS V14.00,2013-10-16 15:15:00,
2013-10-16 10:20:00,38.7,35.5,29.94,West,259,0.0,0.0,88,0.00,,CLR,0.00,VWS V14.00,2013-10-16 15:20:00,
2013-10-16 10:25:00,39.4,36.2,29.94,West,259,0.0,0.0,88,0.00,,CLR,0.00,VWS V14.00,2013-10-16 15:25:00,
2013-10-16 10:30:00,40.0,36.5,29.93,West,259,0.0,0.0,87,0.00,,CLR,0.00,VWS V14.00,2013-10-16 15:30:00,
2013-10-16 10:35:00,40.6,36.8,29.93,WSW,257,0.0,0.0,86,0.00,,CLR,0.00,VWS V14.00,2013-10-16 15:35:00,
2013-10-16 10:40:00,41.2,36.7,29.93,WSW,257,0.0,0.0,84,0.00,,CLR,0.00,VWS V14.00,2013-10-16 15:40:00,
2013-10-16 10:45:00,41.8,37.0,29.93,WSW,257,0.0,0.0,83,0.00,,CLR,0.00,VWS V14.00,2013-10-16 15:45:00,
2013-10-16 10:50:00,42.2,36.8,29.93,WSW,257,0.0,0.0,81,0.00,,CLR,0.00,VWS V14.00,2013-10-16 15:50:00,
2013-10-16 10:55:00,42.6,36.5,29.93,WSW,257,0.0,0.0,79,0.00,,CLR,0.00,VWS V14.00,2013-10-16 15:55:00,
2013-10-16 11:00:00,43.2,36.8,29.93,WSW,256,0.0,0.0,78,0.00,,CLR,0.00,VWS V14.00,2013-10-16 16:00:00,
2013-10-16 11:05:00,43.7,37.0,29.92,WSW,256,0.0,0.0,77,0.00,,CLR,0.00,VWS V14.00,2013-10-16 16:05:00,
2013-10-16 11:10:00,44.3,37.2,29.92,WSW,256,0.0,0.0,76,0.00,,CLR,0.00,VWS V14.00,2013-10-16 16:10:00,
2013-10-16 11:15:00,44.6,36.8,29.92,WSW,256,0.0,0.0,74,0.00,,CLR,0.00,VWS V14.00,2013-10-16 16:15:00,
2013-10-16 11:20:00,44.7,36.6,29.92,WSW,256,0.0,0.0,73,0.00,,CLR,0.00,VWS V14.00,2013-10-16 16:20:00,
2013-10-16 11:25:00,45.3,37.2,29.92,WSW,252,0.0,0.0,73,0.00,,CLR,0.00,VWS V14.00,2013-10-16 16:25:00,
2013-10-16 11:30:00,45.7,36.8,29.92,WSW,252,0.0,0.0,71,0.00,,CLR,0.00,VWS V14.00,2013-10-16 16:30:00,
2013-10-16 11:35:00,46.3,37.4,29.92,WSW,252,0.0,0.0,71,0.00,,CLR,0.00,VWS V14.00,2013-10-16 16:35:00,
2013-10-16 11:40:00,47.1,37.8,29.92,WSW,252,0.0,0.0,70,0.00,,CLR,0.00,VWS V14.00,2013-10-16 16:40:00,
2013-10-16 11:45:00,47.4,37.8,29.92,WSW,252,0.0,0.0,69,0.00,,CLR,0.00,VWS V14.00,2013-10-16 16:45:00,
2013-10-16 11:50:00,47.7,37.7,29.91,SW,230,0.0,0.0,68,0.00,,CLR,0.00,VWS V14.00,2013-10-16 16:50:00,
2013-10-16 11:55:00,47.8,38.1,29.91,SSW,212,0.0,3.0,69,0.00,,CLR,0.00,VWS V14.00,2013-10-16 16:55:00,
2013-10-16 12:00:00,48.3,37.9,29.91,SSW,212,0.0,0.0,67,0.00,,CLR,0.00,VWS V14.00,2013-10-16 17:00:00,
2013-10-16 12:05:00,48.9,39.2,29.91,SSW,212,0.0,0.0,69,0.00,,CLR,0.00,VWS V14.00,2013-10-16 17:05:00,
2013-10-16 12:10:00,49.5,38.2,29.91,SSW,212,0.0,0.0,65,0.00,,CLR,0.00,VWS V14.00,2013-10-16 17:10:00,
2013-10-16 12:15:00,49.6,38.3,29.91,SSW,211,0.0,1.0,65,0.00,,CLR,0.00,VWS V14.00,2013-10-16 17:15:00,
2013-10-16 12:20:00,50.0,38.7,29.91,SSW,203,0.0,0.0,65,0.00,,CLR,0.00,VWS V14.00,2013-10-16 17:20:00,
2013-10-16 12:25:00,50.1,38.4,29.91,SSW,201,0.0,2.0,64,0.00,,CLR,0.00,VWS V14.00,2013-10-16 17:25:00,
2013-10-16 12:30:00,50.5,39.2,29.91,South,190,0.0,0.0,65,0.00,,CLR,0.00,VWS V14.00,2013-10-16 17:30:00,
2013-10-16 12:35:00,50.9,39.2,29.91,South,185,0.0,2.0,64,0.00,,CLR,0.00,VWS V14.00,2013-10-16 17:35:00,
2013-10-16 12:40:00,51.2,39.0,29.90,South,185,0.0,0.0,63,0.00,,CLR,0.00,VWS V14.00,2013-10-16 17:40:00,
2013-10-16 12:45:00,51.7,39.5,29.90,South,185,1.0,1.0,63,0.00,,CLR,0.00,VWS V14.00,2013-10-16 17:45:00,
2013-10-16 12:50:00,52.1,39.9,29.90,South,185,0.0,0.0,63,0.00,,CLR,0.00,VWS V14.00,2013-10-16 17:50:00,
2013-10-16 12:55:00,52.7,40.1,29.90,South,185,0.0,1.0,62,0.00,,CLR,0.00,VWS V14.00,2013-10-16 17:55:00,
2013-10-16 13:00:00,52.9,39.8,29.90,South,185,0.0,0.0,61,0.00,,CLR,0.00,VWS V14.00,2013-10-16 18:00:00,
2013-10-16 13:05:00,53.2,40.1,29.90,South,183,0.0,1.0,61,0.00,,CLR,0.00,VWS V14.00,2013-10-16 18:05:00,
2013-10-16 13:10:00,53.3,39.8,29.89,South,181,0.0,1.0,60,0.00,,CLR,0.00,VWS V14.00,2013-10-16 18:10:00,
2013-10-16 13:15:00,53.3,39.3,29.89,South,181,0.0,1.0,59,0.00,,CLR,0.00,VWS V14.00,2013-10-16 18:15:00,
2013-10-16 13:20:00,53.3,39.8,29.89,South,180,0.0,0.0,60,0.00,,CLR,0.00,VWS V14.00,2013-10-16 18:20:00,
2013-10-16 13:25:00,53.7,39.7,29.89,South,182,0.0,1.0,59,0.00,,CLR,0.00,VWS V14.00,2013-10-16 18:25:00,
2013-10-16 13:27:00,53.7,39.7,29.88,South,182,0.0,1.0,59,0.00,,CLR,0.00,VWS V14.00,2013-10-16 18:27:00,
2013-10-16 13:32:00,54.3,39.8,29.88,South,182,0.0,1.0,58,0.00,,CLR,0.00,VWS V14.00,2013-10-16 18:32:00,
2013-10-16 13:37:00,54.4,40.0,29.88,South,182,0.0,1.0,58,0.00,,CLR,0.00,VWS V14.00,2013-10-16 18:37:00,
2013-10-16 13:42:00,54.4,40.4,29.88,South,182,0.0,0.0,59,0.00,,CLR,0.00,VWS V14.00,2013-10-16 18:42:00,
2013-10-16 13:47:00,54.6,40.1,29.88,South,182,0.0,0.0,58,0.00,,CLR,0.00,VWS V14.00,2013-10-16 18:47:00,
2013-10-16 13:52:00,54.7,40.2,29.88,South,182,0.0,0.0,58,0.00,,CLR,0.00,VWS V14.00,2013-10-16 18:52:00,
2013-10-16 13:57:00,54.6,40.1,29.88,South,186,0.0,1.0,58,0.00,,CLR,0.00,VWS V14.00,2013-10-16 18:57:00,
2013-10-16 14:02:00,54.6,40.1,29.87,South,186,0.0,0.0,58,0.00,,CLR,0.00,VWS V14.00,2013-10-16 19:02:00,
2013-10-16 14:07:00,54.6,39.7,29.87,South,186,0.0,0.0,57,0.00,,CLR,0.00,VWS V14.00,2013-10-16 19:07:00,
2013-10-16 14:12:00,54.8,40.3,29.86,South,186,0.0,0.0,58,0.00,,CLR,0.00,VWS V14.00,2013-10-16 19:12:00,
2013-10-16 14:17:00,55.0,40.1,29.86,SSW,199,0.0,0.0,57,0.00,,CLR,0.00,VWS V14.00,2013-10-16 19:17:00,
2013-10-16 14:22:00,55.1,39.2,29.86,SSW,201,0.0,0.0,55,0.00,,CLR,0.00,VWS V14.00,2013-10-16 19:22:00,
2013-10-16 14:27:00,55.3,39.9,29.86,SSW,204,0.0,0.0,56,0.00,,CLR,0.00,VWS V14.00,2013-10-16 19:27:00,
2013-10-16 14:32:00,55.6,40.2,29.86,SSW,205,0.0,0.0,56,0.00,,CLR,0.00,VWS V14.00,2013-10-16 19:32:00,
2013-10-16 14:37:00,55.8,39.9,29.85,SSW,212,1.0,1.0,55,0.00,,CLR,0.00,VWS V14.00,2013-10-16 19:37:00,
2013-10-16 14:42:00,56.1,39.7,29.85,SSW,212,0.0,2.0,54,0.00,,CLR,0.00,VWS V14.00,2013-10-16 19:42:00,
2013-10-16 14:47:00,56.3,39.4,29.85,SW,214,0.0,2.0,53,0.00,,CLR,0.00,VWS V14.00,2013-10-16 19:47:00,
2013-10-16 14:52:00,56.4,40.0,29.85,SW,219,0.0,2.0,54,0.00,,CLR,0.00,VWS V14.00,2013-10-16 19:52:00,
2013-10-16 14:57:00,56.5,39.6,29.85,SW,233,0.0,3.0,53,0.00,,CLR,0.00,VWS V14.00,2013-10-16 19:57:00,
2013-10-16 15:02:00,56.8,39.9,29.85,SW,234,0.0,1.0,53,0.00,,CLR,0.00,VWS V14.00,2013-10-16 20:02:00,
2013-10-16 15:07:00,57.0,40.1,29.85,SW,233,0.0,1.0,53,0.00,,CLR,0.00,VWS V14.00,2013-10-16 20:07:00,
2013-10-16 15:12:00,57.5,40.0,29.85,SW,231,0.0,0.0,52,0.00,,CLR,0.00,VWS V14.00,2013-10-16 20:12:00,
2013-10-16 15:17:00,57.6,39.1,29.85,West,267,0.0,8.0,50,0.00,,CLR,0.00,VWS V14.00,2013-10-16 20:17:00,
2013-10-16 15:22:00,57.5,39.5,29.85,WSW,251,0.0,1.0,51,0.00,,CLR,0.00,VWS V14.00,2013-10-16 20:22:00,
2013-10-16 15:27:00,57.4,39.4,29.84,West,259,0.0,4.0,51,0.00,,CLR,0.00,VWS V14.00,2013-10-16 20:27:00,
2013-10-16 15:32:00,57.4,39.9,29.84,WSW,251,0.0,1.0,52,0.00,,CLR,0.00,VWS V14.00,2013-10-16 20:32:00,
2013-10-16 15:37:00,57.6,40.1,29.84,WSW,258,0.0,6.0,52,0.00,,CLR,0.00,VWS V14.00,2013-10-16 20:37:00,
2013-10-16 15:42:00,57.8,40.8,29.84,WSW,257,0.0,0.0,53,0.00,,CLR,0.00,VWS V14.00,2013-10-16 20:42:00,
2013-10-16 15:47:00,58.0,40.5,29.83,WSW,249,0.0,3.0,52,0.00,,CLR,0.00,VWS V14.00,2013-10-16 20:47:00,
2013-10-16 15:52:00,58.2,40.2,29.83,WSW,242,0.0,3.0,51,0.00,,CLR,0.00,VWS V14.00,2013-10-16 20:52:00,
2013-10-16 15:58:00,58.4,39.8,29.83,WSW,253,0.0,4.0,50,0.00,,CLR,0.00,VWS V14.00,2013-10-16 20:58:00,
2013-10-16 16:02:00,58.7,40.1,29.83,WSW,249,3.0,5.0,50,0.00,,CLR,0.00,VWS V14.00,2013-10-16 21:02:00,
2013-10-16 16:07:00,59.0,39.4,29.83,WSW,243,0.0,5.0,48,0.00,,CLR,0.00,VWS V14.00,2013-10-16 21:07:00,
2013-10-16 16:13:00,59.3,39.1,29.83,SW,233,0.0,5.0,47,0.00,,CLR,0.00,VWS V14.00,2013-10-16 21:13:00,
2013-10-16 16:18:00,59.5,36.4,29.83,West,260,0.0,13.0,42,0.00,,CLR,0.00,VWS V14.00,2013-10-16 21:18:00,
2013-10-16 16:23:00,59.7,36.6,29.83,West,271,1.0,6.0,42,0.00,,CLR,0.00,VWS V14.00,2013-10-16 21:23:00,
2013-10-16 16:28:00,60.0,36.2,29.83,West,272,6.0,9.0,41,0.00,,CLR,0.00,VWS V14.00,2013-10-16 21:28:00,
2013-10-16 16:33:00,60.2,35.8,29.83,West,263,4.0,10.0,40,0.00,,CLR,0.00,VWS V14.00,2013-10-16 21:33:00,
2013-10-16 16:38:00,60.1,35.7,29.83,SW,225,0.0,10.0,40,0.00,,CLR,0.00,VWS V14.00,2013-10-16 21:38:00,
2013-10-16 16:43:00,60.2,35.8,29.83,WSW,256,0.0,6.0,40,0.00,,CLR,0.00,VWS V14.00,2013-10-16 21:43:00,
2013-10-16 16:48:00,60.3,35.9,29.83,West,271,0.0,8.0,40,0.00,,CLR,0.00,VWS V14.00,2013-10-16 21:48:00,
2013-10-16 16:53:00,60.2,37.0,29.82,WSW,256,0.0,5.0,42,0.00,,CLR,0.00,VWS V14.00,2013-10-16 21:53:00,
2013-10-16 16:58:00,60.3,36.5,29.83,West,259,0.0,10.0,41,0.00,,CLR,0.00,VWS V14.00,2013-10-16 21:58:00,
2013-10-16 17:03:00,60.3,35.9,29.83,West,261,0.0,3.0,40,0.00,,CLR,0.00,VWS V14.00,2013-10-16 22:03:00,
2013-10-16 17:08:00,60.3,35.3,29.83,WSW,247,7.0,10.0,39,0.00,,CLR,0.00,VWS V14.00,2013-10-16 22:08:00,
2013-10-16 17:13:00,60.1,35.7,29.82,WSW,252,0.0,8.0,40,0.00,,CLR,0.00,VWS V14.00,2013-10-16 22:13:00,
2013-10-16 17:18:00,59.8,35.5,29.83,West,269,0.0,8.0,40,0.00,,CLR,0.00,VWS V14.00,2013-10-16 22:18:00,
2013-10-16 17:23:00,59.7,35.4,29.83,WSW,244,4.0,7.0,40,0.00,,CLR,0.00,VWS V14.00,2013-10-16 22:23:00,
2013-10-16 17:28:00,59.6,35.3,29.82,WSW,245,1.0,9.0,40,0.00,,CLR,0.00,VWS V14.00,2013-10-16 22:28:00,
2013-10-16 17:33:00,59.3,35.0,29.82,WSW,255,0.0,7.0,40,0.00,,CLR,0.00,VWS V14.00,2013-10-16 22:33:00,
2013-10-16 17:38:00,58.7,35.1,29.82,WSW,250,0.0,7.0,41,0.00,,CLR,0.00,VWS V14.00,2013-10-16 22:38:00,
2013-10-16 17:43:00,58.4,35.4,29.82,WSW,243,0.0,1.0,42,0.00,,CLR,0.00,VWS V14.00,2013-10-16 22:43:00,
2013-10-16 17:48:00,58.0,36.2,29.82,WSW,243,0.0,1.0,44,0.00,,CLR,0.00,VWS V14.00,2013-10-16 22:48:00,
2013-10-16 17:53:00,57.7,36.0,29.82,WSW,243,0.0,0.0,44,0.00,,CLR,0.00,VWS V14.00,2013-10-16 22:53:00,
2013-10-16 17:58:00,57.4,35.7,29.82,WSW,242,0.0,0.0,44,0.00,,CLR,0.00,VWS V14.00,2013-10-16 22:58:00,
2013-10-16 18:03:00,57.0,35.9,29.82,WSW,242,0.0,2.0,45,0.00,,CLR,0.00,VWS V14.00,2013-10-16 23:03:00,
2013-10-16 18:08:00,56.7,35.6,29.82,WSW,242,0.0,2.0,45,0.00,,CLR,0.00,VWS V14.00,2013-10-16 23:08:00,
2013-10-16 18:13:00,56.5,36.5,29.82,WSW,242,0.0,0.0,47,0.00,,CLR,0.00,VWS V14.00,2013-10-16 23:13:00,
2013-10-16 18:18:00,56.1,36.2,29.82,WSW,242,2.0,2.0,47,0.00,,CLR,0.00,VWS V14.00,2013-10-16 23:18:00,
2013-10-16 18:23:00,55.8,36.4,29.82,WSW,242,0.0,1.0,48,0.00,,CLR,0.00,VWS V14.00,2013-10-16 23:23:00,
2013-10-16 18:28:00,55.4,36.6,29.82,WSW,242,0.0,1.0,49,0.00,,CLR,0.00,VWS V14.00,2013-10-16 23:28:00,
2013-10-16 18:33:00,55.0,36.7,29.82,WSW,242,0.0,0.0,50,0.00,,CLR,0.00,VWS V14.00,2013-10-16 23:33:00,
2013-10-16 18:38:00,54.4,37.2,29.82,WSW,242,0.0,0.0,52,0.00,,CLR,0.00,VWS V14.00,2013-10-16 23:38:00,
2013-10-16 18:43:00,53.8,36.6,29.82,WSW,242,0.0,0.0,52,0.00,,CLR,0.00,VWS V14.00,2013-10-16 23:43:00,
2013-10-16 18:48:00,53.2,36.5,29.82,WSW,242,0.0,0.0,53,0.00,,CLR,0.00,VWS V14.00,2013-10-16 23:48:00,
2013-10-16 18:53:00,52.7,36.5,29.82,WSW,242,0.0,0.0,54,0.00,,CLR,0.00,VWS V14.00,2013-10-16 23:53:00,
2013-10-16 18:58:00,52.2,36.5,29.82,WSW,242,0.0,0.0,55,0.00,,CLR,0.00,VWS V14.00,2013-10-16 23:58:00,
2013-10-16 19:03:00,51.6,36.4,29.82,WSW,242,0.0,0.0,56,0.00,,CLR,0.00,VWS V14.00,2013-10-17 00:03:00,
2013-10-16 19:08:00,51.1,36.8,29.82,WSW,242,0.0,0.0,58,0.00,,CLR,0.00,VWS V14.00,2013-10-17 00:08:00,
2013-10-16 19:14:00,50.6,36.4,29.82,WSW,242,0.0,0.0,58,0.00,,CLR,0.00,VWS V14.00,2013-10-17 00:14:00,
2013-10-16 19:18:00,50.1,36.3,29.82,WSW,242,0.0,0.0,59,0.00,,CLR,0.00,VWS V14.00,2013-10-17 00:18:00,
2013-10-16 19:23:00,49.5,36.2,29.82,WSW,242,0.0,0.0,60,0.00,,CLR,0.00,VWS V14.00,2013-10-17 00:23:00,
2013-10-16 19:28:00,49.0,36.2,29.82,WSW,242,0.0,0.0,61,0.00,,CLR,0.00,VWS V14.00,2013-10-17 00:28:00,
2013-10-16 19:34:00,48.5,36.1,29.82,WSW,242,0.0,0.0,62,0.00,,CLR,0.00,VWS V14.00,2013-10-17 00:34:00,
2013-10-16 19:38:00,48.1,36.1,29.82,WSW,242,0.0,0.0,63,0.00,,CLR,0.00,VWS V14.00,2013-10-17 00:38:00,
2013-10-16 19:43:00,47.6,36.0,29.82,WSW,242,0.0,0.0,64,0.00,,CLR,0.00,VWS V14.00,2013-10-17 00:43:00,
2013-10-16 19:48:00,47.3,36.2,29.82,WSW,242,0.0,0.0,65,0.00,,CLR,0.00,VWS V14.00,2013-10-17 00:48:00,
2013-10-16 19:53:00,46.8,35.7,29.82,WSW,242,0.0,0.0,65,0.00,,CLR,0.00,VWS V14.00,2013-10-17 00:53:00,
2013-10-16 19:58:00,46.5,35.8,29.82,WSW,242,0.0,0.0,66,0.00,,CLR,0.00,VWS V14.00,2013-10-17 00:58:00,
2013-10-16 20:04:00,46.1,35.8,29.82,WSW,242,0.0,0.0,67,0.00,,CLR,0.00,VWS V14.00,2013-10-17 01:04:00,
2013-10-16 20:09:00,45.8,35.8,29.82,WSW,242,0.0,0.0,68,0.00,,CLR,0.00,VWS V14.00,2013-10-17 01:09:00,
2013-10-16 20:14:00,45.6,35.7,29.82,WSW,242,0.0,0.0,68,0.00,,CLR,0.00,VWS V14.00,2013-10-17 01:14:00,
2013-10-16 20:19:00,45.4,35.8,29.82,WSW,242,0.0,0.0,69,0.00,,CLR,0.00,VWS V14.00,2013-10-17 01:19:00,
2013-10-16 20:24:00,45.3,35.7,29.82,WSW,242,0.0,0.0,69,0.00,,CLR,0.00,VWS V14.00,2013-10-17 01:24:00,
2013-10-16 20:29:00,45.5,35.9,29.82,WSW,242,0.0,0.0,69,0.00,,CLR,0.00,VWS V14.00,2013-10-17 01:29:00,
2013-10-16 20:34:00,45.7,36.1,29.82,WSW,242,0.0,0.0,69,0.00,,CLR,0.00,VWS V14.00,2013-10-17 01:34:00,
2013-10-16 20:39:00,45.9,36.3,29.82,WSW,242,0.0,0.0,69,0.00,,CLR,0.00,VWS V14.00,2013-10-17 01:39:00,
2013-10-16 20:44:00,46.0,36.4,29.82,WSW,242,0.0,0.0,69,0.00,,CLR,0.00,VWS V14.00,2013-10-17 01:44:00,
2013-10-16 20:49:00,46.0,36.4,29.82,WSW,242,0.0,0.0,69,0.00,,CLR,0.00,VWS V14.00,2013-10-17 01:49:00,
2013-10-16 20:54:00,46.0,36.8,29.82,WSW,242,0.0,0.0,70,0.00,,CLR,0.00,VWS V14.00,2013-10-17 01:54:00,
2013-10-16 20:59:00,46.1,36.9,29.82,WSW,242,0.0,0.0,70,0.00,,CLR,0.00,VWS V14.00,2013-10-17 01:59:00,
2013-10-16 21:04:00,46.4,37.2,29.82,WSW,242,0.0,0.0,70,0.00,,BKN065,0.00,VWS V14.00,2013-10-17 02:04:00,
2013-10-16 21:09:00,46.7,37.1,29.82,WSW,242,0.0,0.0,69,0.00,,BKN065,0.00,VWS V14.00,2013-10-17 02:09:00,
2013-10-16 21:14:00,46.9,37.3,29.82,WSW,242,0.0,0.0,69,0.00,,BKN065,0.00,VWS V14.00,2013-10-17 02:14:00,
2013-10-16 21:19:00,47.1,37.1,29.81,WSW,242,0.0,0.0,68,0.00,,BKN065,0.00,VWS V14.00,2013-10-17 02:19:00,
2013-10-16 21:24:00,47.3,37.3,29.82,WSW,242,0.0,0.0,68,0.00,,BKN065,0.00,VWS V14.00,2013-10-17 02:24:00,
2013-10-16 21:29:00,47.4,37.0,29.82,WSW,242,0.0,0.0,67,0.00,,BKN065,0.00,VWS V14.00,2013-10-17 02:29:00,
2013-10-16 21:34:00,47.5,37.1,29.81,WSW,242,0.0,0.0,67,0.00,,BKN065,0.00,VWS V14.00,2013-10-17 02:34:00,
2013-10-16 21:39:00,47.5,37.1,29.82,WSW,242,0.0,0.0,67,0.00,,BKN065,0.00,VWS V14.00,2013-10-17 02:39:00,
2013-10-16 21:44:00,47.6,37.2,29.82,WSW,242,0.0,0.0,67,0.00,,BKN065,0.00,VWS V14.00,2013-10-17 02:44:00,
2013-10-16 21:49:00,47.7,36.9,29.81,WSW,242,0.0,0.0,66,0.00,,BKN065,0.00,VWS V14.00,2013-10-17 02:49:00,
2013-10-16 21:54:00,47.9,37.1,29.81,WSW,242,0.0,0.0,66,0.00,,BKN065,0.00,VWS V14.00,2013-10-17 02:54:00,
2013-10-16 21:59:00,48.1,37.3,29.81,WSW,242,0.0,0.0,66,0.00,,BKN065,0.00,VWS V14.00,2013-10-17 02:59:00,
2013-10-16 22:04:00,48.3,37.5,29.81,WSW,242,0.0,0.0,66,0.00,,BKN065,0.00,VWS V14.00,2013-10-17 03:04:00,
2013-10-16 22:09:00,48.5,37.7,29.81,WSW,242,0.0,0.0,66,0.00,,BKN065,0.00,VWS V14.00,2013-10-17 03:09:00,
2013-10-16 22:14:00,48.6,37.4,29.81,WSW,242,0.0,0.0,65,0.00,,BKN065,0.00,VWS V14.00,2013-10-17 03:14:00,
2013-10-16 22:19:00,48.7,37.5,29.81,WSW,242,0.0,0.0,65,0.00,,BKN065,0.00,VWS V14.00,2013-10-17 03:19:00,
2013-10-16 22:24:00,48.9,37.7,29.82,WSW,242,0.0,0.0,65,0.00,,BKN065,0.00,VWS V14.00,2013-10-17 03:24:00,
2013-10-16 22:29:00,48.9,37.7,29.82,WSW,242,0.0,0.0,65,0.00,,BKN065,0.00,VWS V14.00,2013-10-17 03:29:00,
2013-10-16 22:34:00,48.9,37.7,29.82,WSW,242,0.0,0.0,65,0.00,,BKN065,0.00,VWS V14.00,2013-10-17 03:34:00,
2013-10-16 22:39:00,48.9,37.7,29.82,WSW,242,0.0,0.0,65,0.00,,BKN065,0.00,VWS V14.00,2013-10-17 03:39:00,
2013-10-16 22:44:00,49.0,37.8,29.82,WSW,242,0.0,0.0,65,0.00,,BKN065,0.00,VWS V14.00,2013-10-17 03:44:00,
2013-10-16 22:49:00,49.1,37.9,29.81,WSW,242,0.0,0.0,65,0.00,,BKN065,0.00,VWS V14.00,2013-10-17 03:49:00,
2013-10-16 22:54:00,49.1,37.9,29.81,WSW,242,0.0,3.0,65,0.00,,BKN065,0.00,VWS V14.00,2013-10-17 03:54:00,
2013-10-16 22:59:00,49.3,38.0,29.81,WSW,242,0.0,3.0,65,0.00,,BKN065,0.00,VWS V14.00,2013-10-17 03:59:00,
2013-10-16 23:01:00,49.3,38.0,29.81,WSW,242,0.0,0.0,65,0.00,,BKN110,0.00,VWS V14.00,2013-10-17 04:01:00,
2013-10-16 23:02:00,49.3,38.0,29.81,WSW,242,3.0,3.0,65,0.00,,BKN110,0.00,VWS V14.00,2013-10-17 04:02:00,
2013-10-16 23:07:00,49.4,38.1,29.81,WSW,243,0.0,5.0,65,0.00,,BKN110,0.00,VWS V14.00,2013-10-17 04:07:00,
2013-10-16 23:12:00,49.5,37.8,29.81,WSW,243,0.0,4.0,64,0.00,,BKN110,0.00,VWS V14.00,2013-10-17 04:12:00,
2013-10-16 23:17:00,49.6,37.9,29.81,WSW,244,0.0,5.0,64,0.00,,BKN110,0.00,VWS V14.00,2013-10-17 04:17:00,
2013-10-16 23:22:00,49.6,37.9,29.81,WSW,244,0.0,4.0,64,0.00,,BKN110,0.00,VWS V14.00,2013-10-17 04:22:00,
2013-10-16 23:27:00,49.6,38.3,29.81,WSW,244,0.0,4.0,65,0.00,,BKN110,0.00,VWS V14.00,2013-10-17 04:27:00,
2013-10-16 23:32:00,49.5,38.2,29.81,WSW,244,0.0,2.0,65,0.00,,BKN110,0.00,VWS V14.00,2013-10-17 04:32:00,
2013-10-16 23:37:00,49.5,38.2,29.81,WSW,245,0.0,5.0,65,0.00,,BKN110,0.00,VWS V14.00,2013-10-17 04:37:00,
2013-10-16 23:42:00,49.4,38.1,29.81,WSW,245,0.0,4.0,65,0.00,,BKN110,0.00,VWS V14.00,2013-10-17 04:42:00,
2013-10-16 23:47:00,49.3,38.0,29.81,WSW,245,2.0,6.0,65,0.00,,BKN110,0.00,VWS V14.00,2013-10-17 04:47:00,
2013-10-16 23:52:00,49.2,38.0,29.81,WSW,246,3.0,4.0,65,0.00,,BKN110,0.00,VWS V14.00,2013-10-17 04:52:00,
2013-10-16 23:57:00,49.1,38.2,29.81,WSW,250,5.0,7.0,66,0.00,,BKN110,0.00,VWS V14.00,2013-10-17 04:57:00,